Time;durP1;ratioP1;P1;durP2;ratioP2;P2;SDS_P1;SDS_P2;PMS_P1;PMS_P2;Temp;Humidity;BMP_temperature;BMP_pressure;BME280_temperature;BME280_humidity;BME280_pressure;Samples;Min_cycle;Max_cycle;Signal;HPM_P1;HPM_P2
2023/03/09 00:02:49;;;;;;;9.52;5.13;;;;;;;;;;5097527;28;20455;-88
2023/03/09 00:05:20;;;;;;;7.72;4.68;;;;;;;;;;5097300;28;20024;-86
2023/03/09 00:07:46;;;;;;;8.20;4.63;;;;;;;;;;5097680;28;20020;-88
2023/03/09 00:10:12;;;;;;;7.95;4.97;;;;;;;;;;5096346;28;20027;-88
2023/03/09 00:15:43;;;;;;;9.43;4.95;;;;;;;;;;5090943;28;20047;-88
2023/03/09 00:18:09;;;;;;;6.80;4.32;;;;;;;;;;5059413;28;20020;-86
2023/03/09 00:20:37;;;;;;;9.15;4.57;;;;;;;;;;5077281;28;20027;-88
2023/03/09 00:23:08;;;;;;;10.07;5.32;;;;;;;;;;5077083;28;20112;-87
2023/03/09 00:25:34;;;;;;;7.45;4.32;;;;;;;;;;5060582;28;20048;-86
2023/03/09 00:31:22;;;;;;;9.73;4.35;;;;;;;;;;5080861;28;20062;-86
2023/03/09 00:33:49;;;;;;;8.45;4.53;;;;;;;;;;5080790;28;20024;-86
2023/03/09 00:36:17;;;;;;;7.57;4.45;;;;;;;;;;5080386;28;20481;-86
2023/03/09 00:38:43;;;;;;;8.15;4.32;;;;;;;;;;5080394;28;20063;-86
2023/03/09 00:41:09;;;;;;;10.10;5.10;;;;;;;;;;5080652;28;20025;-86
2023/03/09 00:43:36;;;;;;;9.30;4.90;;;;;;;;;;5080448;28;20314;-86
2023/03/09 00:46:02;;;;;;;9.00;4.10;;;;;;;;;;5080391;28;20322;-86
2023/03/09 00:48:28;;;;;;;6.97;4.55;;;;;;;;;;5062479;28;20020;-86
2023/03/09 00:50:54;;;;;;;4.95;3.67;;;;;;;;;;5062604;28;20024;-86
2023/03/09 00:53:20;;;;;;;6.70;4.10;;;;;;;;;;5062573;28;20111;-87
2023/03/09 00:55:46;;;;;;;8.55;4.78;;;;;;;;;;5080227;28;20029;-88
2023/03/09 00:58:12;;;;;;;7.75;4.45;;;;;;;;;;5062324;28;20033;-88
2023/03/09 01:00:38;;;;;;;8.23;4.45;;;;;;;;;;5080184;28;20028;-88
2023/03/09 01:03:04;;;;;;;7.72;5.10;;;;;;;;;;5079717;28;20024;-87
2023/03/09 01:05:30;;;;;;;9.90;4.70;;;;;;;;;;5079849;28;20021;-87
2023/03/09 01:07:56;;;;;;;7.25;4.85;;;;;;;;;;5080151;28;20100;-88
2023/03/09 01:10:23;;;;;;;11.00;4.80;;;;;;;;;;5079868;28;20017;-86
2023/03/09 01:12:49;;;;;;;8.40;5.20;;;;;;;;;;5079695;28;20311;-86
2023/03/09 01:15:15;;;;;;;10.00;5.80;;;;;;;;;;5079845;28;20066;-86
2023/03/09 01:17:42;;;;;;;13.77;6.25;;;;;;;;;;5079953;28;20039;-86
2023/03/09 01:20:09;;;;;;;14.90;7.25;;;;;;;;;;5079840;28;20027;-87
2023/03/09 01:22:35;;;;;;;13.40;7.25;;;;;;;;;;5061357;28;20036;-87
2023/03/09 01:25:01;;;;;;;17.58;7.93;;;;;;;;;;5061912;28;20034;-86
2023/03/09 01:27:27;;;;;;;15.63;8.00;;;;;;;;;;5079484;28;20067;-87
2023/03/09 01:30:31;;;;;;;17.35;7.63;;;;;;;;;;5079521;28;20032;-88
2023/03/09 01:32:57;;;;;;;14.18;6.95;;;;;;;;;;5079261;28;20099;-88
2023/03/09 01:35:23;;;;;;;12.23;6.55;;;;;;;;;;5061529;28;20321;-86
2023/03/09 01:37:49;;;;;;;10.55;5.80;;;;;;;;;;5078913;28;20107;-87
2023/03/09 01:40:20;;;;;;;12.73;6.50;;;;;;;;;;5079458;28;20024;-86
2023/03/09 01:42:54;;;;;;;11.98;5.78;;;;;;;;;;5078993;28;20031;-86
2023/03/09 01:45:20;;;;;;;9.20;5.10;;;;;;;;;;5079385;28;20104;-87
2023/03/09 01:47:46;;;;;;;9.10;4.90;;;;;;;;;;5079308;28;20403;-88
2023/03/09 01:50:14;;;;;;;8.98;4.78;;;;;;;;;;5079363;28;20021;-87
2023/03/09 01:52:40;;;;;;;10.95;5.07;;;;;;;;;;5079419;28;20016;-87
2023/03/09 01:55:09;;;;;;;8.43;5.35;;;;;;;;;;5079263;28;20033;-87
2023/03/09 01:57:37;;;;;;;9.45;4.75;;;;;;;;;;5061291;28;20028;-87
2023/03/09 02:03:16;;;;;;;6.70;4.15;;;;;;;;;;5078961;28;20074;-88
2023/03/09 02:05:51;;;;;;;7.13;4.40;;;;;;;;;;5061193;28;20052;-87
2023/03/09 02:08:18;;;;;;;8.68;4.78;;;;;;;;;;5060420;28;20029;-87
2023/03/09 02:10:47;;;;;;;8.68;5.03;;;;;;;;;;5079070;28;20021;-87
2023/03/09 02:13:15;;;;;;;7.72;4.28;;;;;;;;;;5078572;28;20025;-88
2023/03/09 02:15:41;;;;;;;8.40;4.05;;;;;;;;;;5065473;28;20127;-87
2023/03/09 02:18:08;;;;;;;8.65;4.25;;;;;;;;;;5080511;28;20036;-87
2023/03/09 02:20:43;;;;;;;10.65;4.93;;;;;;;;;;5098779;28;20039;-87
2023/03/09 02:23:29;;;;;;;8.57;4.07;;;;;;;;;;5098727;28;20024;-88
2023/03/09 02:26:02;;;;;;;9.27;4.15;;;;;;;;;;4997421;28;20038;-88
2023/03/09 02:28:28;;;;;;;8.30;4.28;;;;;;;;;;5016897;28;20038;-88
2023/03/09 02:30:54;;;;;;;8.98;4.90;;;;;;;;;;5016938;28;20084;-87
2023/03/09 02:33:25;;;;;;;11.45;4.93;;;;;;;;;;5016371;28;20030;-88
2023/03/09 02:35:52;;;;;;;7.70;4.43;;;;;;;;;;5016896;28;20495;-88
2023/03/09 02:38:18;;;;;;;8.13;4.03;;;;;;;;;;5016825;28;20076;-87
2023/03/09 02:40:45;;;;;;;5.93;3.88;;;;;;;;;;5016793;28;20431;-87
2023/03/09 02:43:12;;;;;;;6.90;4.45;;;;;;;;;;5017022;28;20080;-89
2023/03/09 02:45:39;;;;;;;7.25;4.38;;;;;;;;;;5016717;28;20349;-88
2023/03/09 02:48:05;;;;;;;9.43;5.70;;;;;;;;;;5016363;28;20022;-87
2023/03/09 02:50:31;;;;;;;8.52;3.97;;;;;;;;;;5016261;28;20089;-87
2023/03/09 02:52:57;;;;;;;8.25;4.18;;;;;;;;;;5016577;28;20319;-87
2023/03/09 02:55:23;;;;;;;8.73;4.55;;;;;;;;;;5016410;28;20034;-87
2023/03/09 02:57:49;;;;;;;9.18;4.05;;;;;;;;;;5016458;28;20030;-87
2023/03/09 03:03:53;;;;;;;8.18;4.97;;;;;;;;;;5076979;28;20471;-87
2023/03/09 03:06:19;;;;;;;7.05;4.68;;;;;;;;;;5098275;28;20028;-87
2023/03/09 03:08:45;;;;;;;8.85;4.32;;;;;;;;;;5079829;28;20406;-87
2023/03/09 03:11:11;;;;;;;5.53;4.07;;;;;;;;;;5098227;28;20024;-87
2023/03/09 03:13:38;;;;;;;9.10;4.70;;;;;;;;;;5098112;28;20042;-87
2023/03/09 03:16:04;;;;;;;6.85;4.53;;;;;;;;;;5089910;28;20047;-87
2023/03/09 03:18:30;;;;;;;7.57;4.35;;;;;;;;;;5077802;28;20024;-89
2023/03/09 03:20:56;;;;;;;6.90;4.63;;;;;;;;;;5077684;28;20020;-88
2023/03/09 03:23:23;;;;;;;6.82;5.15;;;;;;;;;;5077974;28;20403;-87
2023/03/09 03:25:49;;;;;;;8.30;4.63;;;;;;;;;;5077807;28;20036;-87
2023/03/09 03:28:15;;;;;;;6.78;4.45;;;;;;;;;;5059933;28;20417;-88
2023/03/09 03:30:42;;;;;;;10.93;5.13;;;;;;;;;;5059766;28;20025;-88
2023/03/09 03:33:08;;;;;;;10.57;6.97;;;;;;;;;;5077759;28;20107;-87
2023/03/09 03:35:34;;;;;;;11.50;7.75;;;;;;;;;;5059044;28;20075;-89
2023/03/09 03:38:00;;;;;;;11.88;7.68;;;;;;;;;;5077676;28;20413;-88
2023/03/09 03:40:26;;;;;;;11.70;8.23;;;;;;;;;;5077848;28;20017;-87
2023/03/09 03:42:52;;;;;;;23.10;15.65;;;;;;;;;;5077624;28;20103;-88
2023/03/09 03:48:52;;;;;;;19.45;12.77;;;;;;;;;;5077748;28;20027;-88
2023/03/09 03:51:19;;;;;;;15.63;10.23;;;;;;;;;;5058989;28;20415;-87
2023/03/09 03:53:45;;;;;;;26.45;14.95;;;;;;;;;;5059102;28;20050;-88
2023/03/09 03:56:11;;;;;;;23.60;13.00;;;;;;;;;;5059725;28;20028;-88
2023/03/09 03:58:37;;;;;;;29.52;16.23;;;;;;;;;;5077209;28;20100;-88
2023/03/09 04:01:04;;;;;;;21.80;13.05;;;;;;;;;;5079939;28;20040;-88
2023/03/09 04:03:30;;;;;;;16.60;10.15;;;;;;;;;;5081018;28;20024;-88
2023/03/09 04:05:56;;;;;;;13.95;8.77;;;;;;;;;;5080924;28;20021;-87
2023/03/09 04:08:22;;;;;;;12.52;9.00;;;;;;;;;;5063387;28;20029;-88
2023/03/09 04:10:48;;;;;;;13.60;7.45;;;;;;;;;;5081206;28;20023;-88
2023/03/09 04:13:14;;;;;;;11.18;7.75;;;;;;;;;;5062862;28;20162;-87
2023/03/09 04:15:47;;;;;;;8.98;6.25;;;;;;;;;;5084787;28;20040;-87
2023/03/09 04:18:14;;;;;;;10.60;5.95;;;;;;;;;;5101125;28;20059;-88
2023/03/09 04:20:41;;;;;;;10.63;6.75;;;;;;;;;;5101543;28;20042;-88
2023/03/09 04:23:07;;;;;;;12.10;6.28;;;;;;;;;;5083277;28;20039;-86
2023/03/09 04:25:33;;;;;;;16.38;7.20;;;;;;;;;;5100704;28;20024;-88
2023/03/09 04:27:59;;;;;;;11.43;7.10;;;;;;;;;;5100842;28;20103;-88
2023/03/09 04:31:02;;;;;;;13.65;6.68;;;;;;;;;;5100560;28;20035;-88
2023/03/09 04:33:28;;;;;;;13.77;6.20;;;;;;;;;;5100640;28;20024;-89
2023/03/09 04:35:54;;;;;;;9.43;5.93;;;;;;;;;;5082247;28;20044;-86
2023/03/09 04:38:20;;;;;;;8.45;5.72;;;;;;;;;;5093369;28;20032;-88
2023/03/09 04:40:46;;;;;;;9.45;5.47;;;;;;;;;;5062905;28;20037;-90
2023/03/09 04:43:13;;;;;;;12.25;6.05;;;;;;;;;;5080222;28;20033;-85
2023/03/09 04:45:39;;;;;;;8.27;5.85;;;;;;;;;;5075616;28;20020;-80
2023/03/09 04:48:05;;;;;;;9.85;5.65;;;;;;;;;;5081363;28;20115;-79
2023/03/09 04:50:31;;;;;;;12.45;7.20;;;;;;;;;;5081785;28;20028;-80
2023/03/09 04:52:57;;;;;;;11.02;6.10;;;;;;;;;;5099666;28;20020;-80
2023/03/09 04:55:23;;;;;;;10.02;6.20;;;;;;;;;;5100058;28;20283;-80
2023/03/09 04:57:49;;;;;;;13.10;5.63;;;;;;;;;;5099762;28;20032;-80
2023/03/09 05:00:16;;;;;;;10.05;5.18;;;;;;;;;;5099627;28;20066;-80
2023/03/09 05:02:42;;;;;;;8.70;5.32;;;;;;;;;;5099608;28;20020;-80
2023/03/09 05:05:09;;;;;;;10.80;4.68;;;;;;;;;;5099666;28;20038;-80
2023/03/09 05:07:35;;;;;;;8.15;5.32;;;;;;;;;;5099434;28;20020;-80
2023/03/09 05:10:02;;;;;;;11.55;5.43;;;;;;;;;;5099394;28;20021;-80
2023/03/09 05:12:31;;;;;;;8.73;4.82;;;;;;;;;;5080236;28;20040;-79
2023/03/09 05:15:00;;;;;;;9.55;4.93;;;;;;;;;;5099218;28;20399;-80
2023/03/09 05:17:26;;;;;;;10.35;4.55;;;;;;;;;;5081268;28;20109;-80
2023/03/09 05:19:52;;;;;;;9.10;5.22;;;;;;;;;;5099346;28;20028;-80
2023/03/09 05:22:18;;;;;;;8.10;5.05;;;;;;;;;;5081157;28;20326;-80
2023/03/09 05:24:44;;;;;;;12.50;4.65;;;;;;;;;;5099185;28;20020;-80
2023/03/09 05:27:12;;;;;;;7.90;4.97;;;;;;;;;;5080220;28;20040;-79
2023/03/09 05:29:38;;;;;;;10.25;4.88;;;;;;;;;;5098140;28;20303;-80
2023/03/09 05:32:04;;;;;;;12.18;5.20;;;;;;;;;;5090600;28;20418;-80
2023/03/09 05:34:30;;;;;;;12.27;4.90;;;;;;;;;;5081149;28;20060;-81
2023/03/09 05:36:56;;;;;;;9.43;5.07;;;;;;;;;;5098819;28;20038;-81
2023/03/09 05:39:23;;;;;;;22.63;6.65;;;;;;;;;;5099125;28;20028;-81
2023/03/09 05:41:50;;;;;;;17.17;6.45;;;;;;;;;;5099209;28;20028;-81
2023/03/09 05:44:16;;;;;;;12.50;6.97;;;;;;;;;;5098865;28;20024;-81
2023/03/09 05:46:42;;;;;;;15.15;6.22;;;;;;;;;;5096860;28;20030;-81
2023/03/09 05:49:08;;;;;;;12.18;7.43;;;;;;;;;;5110945;28;20062;-81
2023/03/09 05:51:35;;;;;;;15.57;7.47;;;;;;;;;;5119181;28;20028;-80
2023/03/09 05:54:01;;;;;;;11.93;6.80;;;;;;;;;;5100133;28;20028;-81
2023/03/09 05:56:28;;;;;;;9.90;6.07;;;;;;;;;;5118896;28;20072;-81
2023/03/09 05:58:56;;;;;;;14.15;7.25;;;;;;;;;;5100110;28;20035;-80
2023/03/09 06:01:23;;;;;;;10.88;6.63;;;;;;;;;;5087073;28;20330;-81
2023/03/09 06:03:49;;;;;;;11.43;7.10;;;;;;;;;;5098364;28;20115;-80
2023/03/09 06:06:16;;;;;;;12.02;6.47;;;;;;;;;;5100251;28;20060;-80
2023/03/09 06:08:42;;;;;;;13.52;5.82;;;;;;;;;;5085607;28;20020;-80
2023/03/09 06:11:08;;;;;;;15.55;6.15;;;;;;;;;;5085469;28;20031;-80
2023/03/09 06:13:35;;;;;;;10.10;6.35;;;;;;;;;;5075123;28;20055;-80
2023/03/09 06:16:04;;;;;;;11.65;5.85;;;;;;;;;;5098141;28;20024;-80
2023/03/09 06:18:30;;;;;;;11.82;7.10;;;;;;;;;;5079588;28;20040;-80
2023/03/09 06:21:01;;;;;;;10.68;6.45;;;;;;;;;;5080115;28;20040;-80
2023/03/09 06:23:27;;;;;;;8.30;5.65;;;;;;;;;;5080149;28;20032;-80
2023/03/09 06:25:53;;;;;;;10.77;5.88;;;;;;;;;;5097978;28;20024;-80
2023/03/09 06:28:19;;;;;;;17.20;9.38;;;;;;;;;;5079574;28;20016;-80
2023/03/09 06:30:45;;;;;;;19.55;10.48;;;;;;;;;;5098014;28;20028;-80
2023/03/09 06:33:11;;;;;;;11.48;7.30;;;;;;;;;;5097868;28;20314;-80
2023/03/09 06:35:37;;;;;;;13.23;6.32;;;;;;;;;;5097827;28;20028;-80
2023/03/09 06:38:03;;;;;;;13.75;6.40;;;;;;;;;;5097742;28;20032;-80
2023/03/09 06:40:30;;;;;;;10.30;6.22;;;;;;;;;;5097720;28;20020;-79
2023/03/09 06:42:56;;;;;;;8.80;6.22;;;;;;;;;;5097860;28;20024;-80
2023/03/09 06:45:22;;;;;;;13.73;8.00;;;;;;;;;;5097529;28;20034;-81
2023/03/09 06:47:48;;;;;;;13.80;8.98;;;;;;;;;;5079688;28;20024;-80
2023/03/09 06:50:15;;;;;;;18.02;12.50;;;;;;;;;;5097932;28;20074;-80
2023/03/09 06:52:41;;;;;;;12.27;8.10;;;;;;;;;;5097424;28;20047;-80
2023/03/09 06:55:07;;;;;;;12.45;7.40;;;;;;;;;;5097573;28;20303;-80
2023/03/09 06:57:33;;;;;;;10.90;7.05;;;;;;;;;;5078956;28;20024;-80
2023/03/09 06:59:59;;;;;;;16.35;7.55;;;;;;;;;;5079452;28;20036;-80
2023/03/09 07:02:25;;;;;;;11.65;6.97;;;;;;;;;;5097398;28;20085;-80
2023/03/09 07:04:51;;;;;;;11.75;6.38;;;;;;;;;;5097376;28;20040;-80
2023/03/09 07:07:18;;;;;;;10.25;6.40;;;;;;;;;;5096941;28;20032;-80
2023/03/09 07:09:44;;;;;;;11.07;5.75;;;;;;;;;;5078648;28;20032;-80
2023/03/09 07:12:10;;;;;;;10.55;5.80;;;;;;;;;;5097616;28;20043;-80
2023/03/09 07:14:36;;;;;;;12.30;5.22;;;;;;;;;;5097277;28;20023;-80
2023/03/09 07:17:02;;;;;;;10.50;5.70;;;;;;;;;;5097376;28;20040;-81
2023/03/09 07:19:28;;;;;;;8.15;4.70;;;;;;;;;;5079037;28;20032;-83
2023/03/09 07:21:54;;;;;;;10.68;5.00;;;;;;;;;;5097230;28;20040;-80
2023/03/09 07:24:21;;;;;;;11.05;5.03;;;;;;;;;;5097136;28;20020;-80
2023/03/09 07:26:47;;;;;;;9.77;4.90;;;;;;;;;;5097003;28;20523;-80
2023/03/09 07:29:14;;;;;;;6.63;4.43;;;;;;;;;;5078689;28;20097;-80
2023/03/09 07:31:40;;;;;;;6.95;4.70;;;;;;;;;;5096916;28;20024;-80
2023/03/09 07:34:06;;;;;;;7.10;4.22;;;;;;;;;;5097004;28;20020;-80
2023/03/09 07:36:32;;;;;;;8.40;4.75;;;;;;;;;;5081925;28;20074;-80
2023/03/09 07:38:58;;;;;;;13.75;5.30;;;;;;;;;;5101238;28;20098;-82
2023/03/09 07:41:24;;;;;;;9.63;5.82;;;;;;;;;;5101222;28;20032;-80
2023/03/09 07:43:50;;;;;;;8.30;5.13;;;;;;;;;;5101159;28;20471;-80
2023/03/09 07:46:17;;;;;;;8.43;5.00;;;;;;;;;;5100443;28;20028;-80
2023/03/09 07:48:44;;;;;;;8.80;4.82;;;;;;;;;;5100022;28;20027;-79
2023/03/09 07:51:11;;;;;;;11.30;5.88;;;;;;;;;;5100243;28;20024;-78
2023/03/09 07:53:38;;;;;;;11.18;5.32;;;;;;;;;;5100729;28;20016;-78
2023/03/09 07:56:05;;;;;;;8.40;5.25;;;;;;;;;;5100781;28;20024;-78
2023/03/09 07:58:31;;;;;;;7.13;4.60;;;;;;;;;;5100603;28;20050;-78
2023/03/09 08:00:58;;;;;;;11.38;5.63;;;;;;;;;;5082582;28;20036;-79
2023/03/09 08:03:26;;;;;;;12.70;5.60;;;;;;;;;;5100763;28;20024;-78
2023/03/09 08:05:55;;;;;;;8.02;5.00;;;;;;;;;;5100779;28;20057;-78
2023/03/09 08:08:27;;;;;;;12.50;6.82;;;;;;;;;;5082905;28;20441;-78
2023/03/09 08:10:54;;;;;;;13.07;7.05;;;;;;;;;;5100636;28;20024;-80
2023/03/09 08:13:21;;;;;;;11.68;6.45;;;;;;;;;;5100531;28;20024;-78
2023/03/09 08:15:47;;;;;;;12.10;7.53;;;;;;;;;;5100591;28;20337;-79
2023/03/09 08:18:13;;;;;;;11.73;5.70;;;;;;;;;;5082699;28;20429;-79
2023/03/09 08:20:39;;;;;;;12.38;4.72;;;;;;;;;;5082512;28;20094;-79
2023/03/09 08:23:06;;;;;;;8.15;4.60;;;;;;;;;;5100422;28;20027;-79
2023/03/09 08:25:33;;;;;;;9.60;5.20;;;;;;;;;;5100404;28;20028;-80
2023/03/09 08:27:59;;;;;;;14.10;6.18;;;;;;;;;;5100496;28;20151;-79
2023/03/09 08:30:25;;;;;;;24.15;9.23;;;;;;;;;;5100154;28;20033;-80
2023/03/09 08:32:52;;;;;;;16.30;6.80;;;;;;;;;;5100254;28;20024;-79
2023/03/09 08:35:19;;;;;;;13.18;7.18;;;;;;;;;;5100444;28;20089;-80
2023/03/09 08:37:46;;;;;;;16.08;8.13;;;;;;;;;;5100258;28;20043;-79
2023/03/09 08:40:13;;;;;;;15.50;9.82;;;;;;;;;;5099935;28;20052;-80
2023/03/09 08:42:39;;;;;;;22.52;12.02;;;;;;;;;;5081910;28;20077;-80
2023/03/09 08:45:05;;;;;;;16.70;7.85;;;;;;;;;;5081593;28;20475;-80
2023/03/09 08:47:31;;;;;;;12.48;4.25;;;;;;;;;;5098323;28;20024;-81
2023/03/09 08:49:58;;;;;;;8.73;2.65;;;;;;;;;;5099784;28;20020;-80
2023/03/09 08:52:24;;;;;;;5.78;2.97;;;;;;;;;;5081756;28;20024;-80
2023/03/09 08:54:53;;;;;;;7.75;2.90;;;;;;;;;;5081838;28;20310;-80
2023/03/09 08:57:19;;;;;;;7.70;2.83;;;;;;;;;;5099404;28;20048;-80
2023/03/09 08:59:51;;;;;;;6.93;2.65;;;;;;;;;;5081094;28;20062;-80
2023/03/09 09:02:18;;;;;;;6.85;3.33;;;;;;;;;;5099428;28;20039;-81
2023/03/09 09:04:47;;;;;;;5.22;2.83;;;;;;;;;;5099421;28;20038;-80
2023/03/09 09:07:14;;;;;;;5.00;2.10;;;;;;;;;;5099256;28;20049;-80
2023/03/09 09:09:40;;;;;;;5.13;2.47;;;;;;;;;;5099742;28;20161;-81
2023/03/09 09:12:07;;;;;;;4.40;1.92;;;;;;;;;;5081547;28;20036;-80
2023/03/09 09:14:33;;;;;;;2.53;1.75;;;;;;;;;;5099507;28;20030;-79
2023/03/09 09:17:00;;;;;;;3.13;1.95;;;;;;;;;;5098974;28;20437;-80
2023/03/09 09:19:27;;;;;;;4.35;2.20;;;;;;;;;;5099136;28;20032;-81
2023/03/09 09:21:54;;;;;;;2.92;1.38;;;;;;;;;;5098823;28;20036;-81
2023/03/09 09:24:21;;;;;;;7.22;1.73;;;;;;;;;;5098930;28;20374;-80
2023/03/09 09:26:47;;;;;;;10.25;3.20;;;;;;;;;;5098032;28;20036;-81
2023/03/09 09:29:13;;;;;;;6.78;3.38;;;;;;;;;;5077970;28;20150;-80
2023/03/09 09:31:39;;;;;;;9.15;4.28;;;;;;;;;;5095620;28;20028;-80
2023/03/09 09:34:05;;;;;;;9.10;3.30;;;;;;;;;;5090549;28;20115;-80
2023/03/09 09:36:34;;;;;;;6.30;3.28;;;;;;;;;;5098997;28;20142;-80
2023/03/09 09:39:01;;;;;;;8.65;3.28;;;;;;;;;;5098984;28;20032;-80
2023/03/09 09:41:42;;;;;;;13.02;4.35;;;;;;;;;;5098951;28;20031;-79
2023/03/09 09:44:20;;;;;;;6.57;2.83;;;;;;;;;;5099023;28;20034;-79
2023/03/09 09:46:47;;;;;;;7.05;3.85;;;;;;;;;;5080798;28;20028;-80
2023/03/09 09:49:20;;;;;;;11.30;4.22;;;;;;;;;;5098798;28;20028;-80
2023/03/09 09:51:53;;;;;;;9.57;4.95;;;;;;;;;;5098666;28;20107;-80
2023/03/09 09:54:19;;;;;;;10.27;6.05;;;;;;;;;;5098713;28;20091;-80
2023/03/09 09:56:45;;;;;;;14.88;7.72;;;;;;;;;;5097684;28;20501;-79
2023/03/09 09:59:15;;;;;;;20.83;9.45;;;;;;;;;;5090687;28;20048;-80
2023/03/09 10:01:46;;;;;;;9.02;4.40;;;;;;;;;;5098688;28;20317;-79
2023/03/09 10:04:16;;;;;;;7.28;2.95;;;;;;;;;;5098852;28;20078;-79
2023/03/09 10:06:43;;;;;;;5.45;2.70;;;;;;;;;;5098341;28;20420;-79
2023/03/09 10:09:14;;;;;;;6.32;2.85;;;;;;;;;;5094771;28;20095;-78
2023/03/09 10:11:55;;;;;;;5.03;1.90;;;;;;;;;;5091814;28;20024;-79
2023/03/09 10:14:24;;;;;;;5.25;2.70;;;;;;;;;;5092472;28;20016;-79
2023/03/09 10:16:56;;;;;;;3.65;2.33;;;;;;;;;;5096184;28;20445;-79
2023/03/09 10:19:22;;;;;;;;;;;;;;;;;;5080718;28;20032;-79
2023/03/09 10:21:58;;;;;;;5.82;3.30;;;;;;;;;;5098336;28;19904;-79
2023/03/09 10:24:26;;;;;;;7.93;3.40;;;;;;;;;;5098132;28;20073;-79
2023/03/09 10:27:00;;;;;;;8.10;3.88;;;;;;;;;;5079916;28;20028;-81
2023/03/09 10:29:38;;;;;;;17.88;7.13;;;;;;;;;;5098261;28;20051;-81
2023/03/09 10:32:07;;;;;;;11.85;5.38;;;;;;;;;;5098016;28;20028;-80
2023/03/09 10:34:39;;;;;;;13.93;5.20;;;;;;;;;;5098205;28;20024;-80
2023/03/09 10:37:16;;;;;;;6.70;4.25;;;;;;;;;;5098022;28;20410;-80
2023/03/09 10:39:44;;;;;;;6.65;3.65;;;;;;;;;;5079983;28;20070;-80
2023/03/09 10:42:28;;;;;;;5.43;3.40;;;;;;;;;;5097978;28;20028;-80
2023/03/09 10:45:14;;;;;;;4.95;2.53;;;;;;;;;;5097721;28;20051;-80
2023/03/09 10:47:55;;;;;;;7.00;3.28;;;;;;;;;;5097463;28;20331;-80
2023/03/09 10:50:23;;;;;;;8.65;4.13;;;;;;;;;;5097954;28;20024;-80
2023/03/09 10:52:50;;;;;;;9.40;3.67;;;;;;;;;;5079705;28;20426;-80
2023/03/09 10:55:36;;;;;;;9.88;5.15;;;;;;;;;;5097674;28;20032;-80
2023/03/09 10:58:07;;;;;;;7.50;3.83;;;;;;;;;;5097432;28;20020;-80
2023/03/09 11:00:33;;;;;;;9.90;4.47;;;;;;;;;;5075989;28;20074;-80
2023/03/09 11:03:00;;;;;;;8.68;4.00;;;;;;;;;;5096892;28;20031;-80
2023/03/09 11:05:28;;;;;;;7.68;3.83;;;;;;;;;;5079515;28;20315;-80
2023/03/09 11:07:55;;;;;;;12.23;4.78;;;;;;;;;;5097419;28;20028;-80
2023/03/09 11:10:24;;;;;;;28.80;13.80;;;;;;;;;;5096761;28;20043;-82
2023/03/09 11:12:50;;;;;;;35.88;14.98;;;;;;;;;;5076750;28;20145;-80
2023/03/09 11:15:16;;;;;;;42.90;20.20;;;;;;;;;;5079118;28;20043;-80
2023/03/09 11:17:43;;;;;;;52.75;24.77;;;;;;;;;;5079209;28;20408;-81
2023/03/09 11:20:13;;;;;;;44.05;25.77;;;;;;;;;;5097407;28;20066;-81
2023/03/09 11:22:42;;;;;;;58.05;35.13;;;;;;;;;;5079374;28;20042;-80
2023/03/09 11:25:17;;;;;;;34.35;19.52;;;;;;;;;;5097259;28;20310;-81
2023/03/09 11:27:47;;;;;;;44.50;21.60;;;;;;;;;;5097274;28;20321;-80
2023/03/09 11:30:19;;;;;;;37.40;19.95;;;;;;;;;;5097211;28;20413;-80
2023/03/09 11:32:46;;;;;;;47.42;21.52;;;;;;;;;;5079332;28;20032;-80
2023/03/09 11:35:13;;;;;;;24.73;13.05;;;;;;;;;;5097458;28;20027;-80
2023/03/09 11:37:42;;;;;;;19.20;9.05;;;;;;;;;;5079341;28;20020;-79
2023/03/09 11:40:10;;;;;;;21.42;10.00;;;;;;;;;;5097175;28;20080;-80
2023/03/09 11:42:45;;;;;;;21.00;11.55;;;;;;;;;;5097151;28;20039;-80
2023/03/09 11:45:17;;;;;;;24.40;13.60;;;;;;;;;;5078998;28;20070;-80
2023/03/09 11:47:44;;;;;;;13.63;7.82;;;;;;;;;;5096926;28;20024;-80
2023/03/09 11:50:16;;;;;;;15.20;8.02;;;;;;;;;;5096816;28;20016;-80
2023/03/09 11:53:02;;;;;;;21.55;10.95;;;;;;;;;;5079160;28;20020;-80
2023/03/09 11:55:37;;;;;;;23.83;13.75;;;;;;;;;;5096724;28;20542;-80
2023/03/09 11:58:06;;;;;;;19.90;11.57;;;;;;;;;;5096899;28;20028;-79
2023/03/09 12:00:34;;;;;;;22.50;11.32;;;;;;;;;;5097107;28;20034;-79
2023/03/09 12:03:15;;;;;;;19.67;9.85;;;;;;;;;;5078982;28;20024;-80
2023/03/09 12:05:51;;;;;;;17.52;9.90;;;;;;;;;;5096797;28;20028;-80
2023/03/09 12:08:28;;;;;;;19.52;9.27;;;;;;;;;;5096775;28;20066;-80
2023/03/09 12:11:03;;;;;;;46.65;22.20;;;;;;;;;;5096904;28;20063;-79
2023/03/09 12:13:30;;;;;;;25.63;12.88;;;;;;;;;;5096866;28;20024;-80
2023/03/09 12:16:08;;;;;;;37.92;18.58;;;;;;;;;;5096562;28;20031;-80
2023/03/09 12:18:38;;;;;;;28.23;12.40;;;;;;;;;;5096663;28;20090;-80
2023/03/09 12:21:06;;;;;;;27.75;12.32;;;;;;;;;;5097349;28;20028;-80
2023/03/09 12:23:35;;;;;;;25.92;11.93;;;;;;;;;;5100481;28;20414;-80
2023/03/09 12:26:20;;;;;;;23.73;10.70;;;;;;;;;;5100377;28;20151;-80
2023/03/09 12:29:00;;;;;;;26.40;9.95;;;;;;;;;;5100654;28;20301;-80
2023/03/09 12:31:34;;;;;;;17.60;8.85;;;;;;;;;;5100336;28;20024;-80
2023/03/09 12:34:00;;;;;;;15.50;7.25;;;;;;;;;;5100378;28;20413;-80
2023/03/09 12:36:27;;;;;;;17.27;8.30;;;;;;;;;;5100240;28;20030;-80
2023/03/09 12:39:13;;;;;;;14.27;7.82;;;;;;;;;;5082280;28;20028;-80
2023/03/09 12:41:54;;;;;;;16.88;9.80;;;;;;;;;;5018249;28;20088;-80
2023/03/09 12:44:41;;;;;;;13.00;8.80;;;;;;;;;;5018244;28;20038;-80
2023/03/09 12:47:21;;;;;;;10.63;8.10;;;;;;;;;;4978935;28;20130;-80
2023/03/09 12:49:56;;;;;;;38.35;18.95;;;;;;;;;;4978920;28;20063;-80
2023/03/09 12:52:25;;;;;;;22.65;11.07;;;;;;;;;;4978976;28;20035;-80
2023/03/09 12:54:57;;;;;;;15.57;7.57;;;;;;;;;;4979056;28;20031;-80
2023/03/09 12:57:25;;;;;;;12.27;6.70;;;;;;;;;;4979009;28;20038;-80
2023/03/09 12:59:52;;;;;;;24.92;13.82;;;;;;;;;;4978780;28;20072;-80
2023/03/09 13:02:32;;;;;;;26.35;16.55;;;;;;;;;;4978815;28;20027;-80
2023/03/09 13:05:12;;;;;;;18.98;10.57;;;;;;;;;;4978817;28;20043;-80
2023/03/09 13:07:38;;;;;;;23.23;10.65;;;;;;;;;;4978909;28;20023;-80
2023/03/09 13:10:05;;;;;;;12.18;5.90;;;;;;;;;;4978701;28;20023;-80
2023/03/09 13:12:33;;;;;;;10.68;6.00;;;;;;;;;;4978726;28;20035;-80
2023/03/09 13:14:59;;;;;;;9.73;5.90;;;;;;;;;;4978527;28;20071;-80
2023/03/09 13:17:32;;;;;;;14.70;8.80;;;;;;;;;;4978454;28;20047;-80
2023/03/09 13:20:19;;;;;;;12.65;7.07;;;;;;;;;;5036339;28;20439;-80
2023/03/09 13:22:45;;;;;;;16.08;7.78;;;;;;;;;;5017520;28;20037;-80
2023/03/09 13:25:25;;;;;;;9.15;4.97;;;;;;;;;;5052661;28;20097;-79
2023/03/09 13:27:57;;;;;;;9.52;5.10;;;;;;;;;;5057010;28;20041;-79
2023/03/09 13:30:24;;;;;;;9.90;5.32;;;;;;;;;;5057092;28;20083;-80
2023/03/09 13:32:56;;;;;;;11.05;6.80;;;;;;;;;;5056233;28;20021;-79
2023/03/09 13:35:28;;;;;;;14.80;8.60;;;;;;;;;;5057252;28;20025;-79
2023/03/09 13:37:54;;;;;;;;;;;;;;;;;;5057354;28;20423;-79
2023/03/09 13:40:23;;;;;;;8.98;5.57;;;;;;;;;;5040308;28;19912;-79
2023/03/09 13:42:50;;;;;;;7.50;5.00;;;;;;;;;;5057116;28;20033;-80
2023/03/09 13:45:23;;;;;;;10.45;6.28;;;;;;;;;;5056745;28;20355;-80
2023/03/09 13:48:00;;;;;;;12.00;3.80;;;;;;;;;;5056644;28;20033;-80
2023/03/09 13:50:32;;;;;;;9.98;2.45;;;;;;;;;;5056710;28;20028;-80
2023/03/09 13:53:02;;;;;;;9.98;2.88;;;;;;;;;;5056643;28;20099;-79
2023/03/09 13:55:29;;;;;;;9.65;3.17;;;;;;;;;;5056763;28;20041;-80
2023/03/09 13:58:05;;;;;;;8.10;2.80;;;;;;;;;;5056663;28;20025;-80
2023/03/09 14:00:32;;;;;;;7.43;3.40;;;;;;;;;;5090315;28;20044;-80
2023/03/09 14:02:58;;;;;;;6.45;3.60;;;;;;;;;;5089618;28;20021;-90
2023/03/09 14:05:24;;;;;;;6.75;3.65;;;;;;;;;;5077994;28;20037;-88
2023/03/09 14:07:55;;;;;;;7.07;4.03;;;;;;;;;;5086271;28;20047;-89
2023/03/09 14:10:38;;;;;;;6.45;3.53;;;;;;;;;;5079543;28;20361;-87
2023/03/09 14:13:05;;;;;;;5.88;3.90;;;;;;;;;;5090992;28;20032;-86
2023/03/09 14:15:32;;;;;;;10.02;5.43;;;;;;;;;;5088740;28;20024;-86
2023/03/09 14:17:59;;;;;;;8.60;4.00;;;;;;;;;;5078882;28;20131;-87
2023/03/09 14:20:30;;;;;;;10.18;4.43;;;;;;;;;;5085387;28;20068;-88
2023/03/09 14:22:57;;;;;;;6.23;4.00;;;;;;;;;;5078510;28;20467;-87
2023/03/09 14:25:28;;;;;;;6.50;2.92;;;;;;;;;;5064262;28;20056;-86
2023/03/09 14:27:55;;;;;;;13.95;6.53;;;;;;;;;;5091099;28;20056;-86
2023/03/09 14:30:27;;;;;;;8.48;4.43;;;;;;;;;;5078276;28;20048;-87
2023/03/09 14:32:57;;;;;;;13.43;7.88;;;;;;;;;;5093095;28;20350;-82
2023/03/09 14:35:35;;;;;;;9.68;5.13;;;;;;;;;;5098794;28;20024;-86
2023/03/09 14:38:01;;;;;;;6.55;4.65;;;;;;;;;;5080381;28;20141;-86
2023/03/09 14:40:28;;;;;;;16.27;7.28;;;;;;;;;;5067362;28;20052;-86
2023/03/09 14:42:55;;;;;;;7.07;4.30;;;;;;;;;;5060925;28;20507;-86
2023/03/09 14:48:24;;;;;;;12.65;3.80;;;;;;;;;;5090846;28;20043;-86
2023/03/09 14:50:51;;;;;;;60.58;32.28;;;;;;;;;;5080899;28;20031;-86
2023/03/09 14:53:17;;;;;;;43.53;22.85;;;;;;;;;;5085169;28;20036;-86
2023/03/09 14:55:43;;;;;;;63.95;41.20;;;;;;;;;;5092347;28;20035;-85
2023/03/09 14:58:13;;;;;;;9.70;7.53;;;;;;;;;;5094864;28;20029;-88
2023/03/09 15:00:39;;;;;;;7.65;6.35;;;;;;;;;;5085928;28;20028;-85
2023/03/09 15:03:08;;;;;;;8.57;6.15;;;;;;;;;;5091715;28;20028;-85
2023/03/09 15:05:34;;;;;;;9.40;6.05;;;;;;;;;;5093786;28;20041;-87